Time;durP1;ratioP1;P1;durP2;ratioP2;P2;SDS_P1;SDS_P2;PMS_P1;PMS_P2;Temp;Humidity;BMP_temperature;BMP_pressure;BME280_temperature;BME280_humidity;BME280_pressure;Samples;Min_cycle;Max_cycle;Signal;HPM_P1;HPM_P2
2022/04/07 00:01:54;;;;;;;1.93;1.60;;;11.50;99.90;;;;;;5094566;28;20170;-65
2022/04/07 00:04:21;;;;;;;2.37;1.37;;;11.50;99.90;;;;;;5094841;28;20182;-65
2022/04/07 00:06:46;;;;;;;1.80;1.50;;;11.50;99.90;;;;;;5094902;28;20209;-65
2022/04/07 00:09:12;;;;;;;3.80;2.03;;;11.50;99.90;;;;;;5094750;28;20177;-66
2022/04/07 00:11:38;;;;;;;1.63;1.50;;;11.50;99.90;;;;;;5094828;28;20159;-65
2022/04/07 00:14:04;;;;;;;3.00;1.77;;;11.50;99.90;;;;;;5094819;28;20239;-64
2022/04/07 00:16:29;;;;;;;3.00;1.60;;;11.40;99.90;;;;;;5094621;28;20221;-65
2022/04/07 00:18:55;;;;;;;3.03;1.57;;;11.50;99.90;;;;;;5076745;28;20213;-64
2022/04/07 00:21:35;;;;;;;1.97;1.30;;;11.40;99.90;;;;;;5094537;28;20189;-65
2022/04/07 00:24:02;;;;;;;3.10;1.67;;;11.40;99.90;;;;;;5093829;28;20158;-65
2022/04/07 00:26:29;;;;;;;2.53;1.50;;;11.30;99.90;;;;;;5095093;28;20162;-65
2022/04/07 00:28:54;;;;;;;2.57;1.80;;;11.40;99.90;;;;;;5094242;28;20170;-64
2022/04/07 00:31:20;;;;;;;1.50;1.40;;;11.30;99.90;;;;;;5095499;28;20155;-65
2022/04/07 00:33:45;;;;;;;2.20;1.80;;;11.30;99.90;;;;;;5094344;28;20244;-66
2022/04/07 00:36:11;;;;;;;2.10;1.40;;;11.30;99.90;;;;;;5093858;28;20620;-64
2022/04/07 00:38:37;;;;;;;4.03;1.53;;;11.30;99.90;;;;;;5093910;28;20245;-64
2022/04/07 00:41:02;;;;;;;5.40;1.77;;;11.30;99.90;;;;;;5093512;28;20159;-65
2022/04/07 00:43:36;;;;;;;1.97;1.60;;;11.20;99.90;;;;;;5094516;28;20171;-66
2022/04/07 00:46:03;;;;;;;1.53;1.30;;;11.20;99.90;;;;;;5095173;28;20155;-65
2022/04/07 00:48:29;;;;;;;3.00;1.83;;;11.20;99.90;;;;;;5094815;28;20250;-65
2022/04/07 00:50:56;;;;;;;3.83;1.50;;;11.20;99.90;;;;;;5094127;28;20170;-65
2022/04/07 00:53:23;;;;;;;7.23;2.20;;;11.20;99.90;;;;;;5093943;28;20607;-65
2022/04/07 00:55:52;;;;;;;3.80;1.97;;;11.20;99.90;;;;;;5094196;28;20302;-63
2022/04/07 00:58:19;;;;;;;2.33;1.87;;;11.20;99.90;;;;;;5094077;28;20231;-64
2022/04/07 01:00:45;;;;;;;2.27;1.70;;;11.20;99.90;;;;;;5093780;28;20205;-65
2022/04/07 01:03:11;;;;;;;4.50;1.57;;;11.30;99.90;;;;;;5093275;28;20158;-65
2022/04/07 01:05:38;;;;;;;2.00;1.43;;;11.20;99.90;;;;;;5093446;28;20147;-65
2022/04/07 01:08:05;;;;;;;2.33;1.70;;;11.20;99.90;;;;;;5095706;28;20238;-64
2022/04/07 01:10:32;;;;;;;3.20;1.90;;;11.10;99.90;;;;;;5100202;28;20159;-65
2022/04/07 01:12:57;;;;;;;4.70;1.73;;;11.20;99.90;;;;;;5100137;28;20587;-64
2022/04/07 01:15:23;;;;;;;1.47;1.37;;;11.10;99.90;;;;;;5099614;28;20196;-66
2022/04/07 01:17:48;;;;;;;2.07;1.60;;;11.10;99.90;;;;;;5100683;28;20288;-65
2022/04/07 01:20:14;;;;;;;4.67;2.00;;;11.20;99.90;;;;;;5099903;28;20209;-65
2022/04/07 01:22:44;;;;;;;1.83;1.63;;;11.20;99.90;;;;;;5099401;28;20540;-65
2022/04/07 01:25:10;;;;;;;3.00;1.63;;;11.20;99.90;;;;;;5100327;28;20567;-66
2022/04/07 01:27:36;;;;;;;2.60;1.70;;;11.20;99.90;;;;;;5100568;28;20158;-65
2022/04/07 01:30:07;;;;;;;1.50;1.40;;;11.20;99.90;;;;;;5081287;28;20178;-65
2022/04/07 01:32:45;;;;;;;2.87;1.40;;;11.20;99.90;;;;;;5099698;28;20551;-64
2022/04/07 01:35:12;;;;;;;2.80;1.33;;;11.20;99.90;;;;;;5100069;28;20209;-64
2022/04/07 01:37:40;;;;;;;3.70;1.53;;;11.20;99.90;;;;;;5100106;28;20624;-65
2022/04/07 01:40:09;;;;;;;2.07;1.57;;;11.20;99.90;;;;;;5099920;28;20206;-66
2022/04/07 01:42:37;;;;;;;2.87;1.70;;;11.20;99.90;;;;;;5100909;28;20175;-63
2022/04/07 01:45:05;;;;;;;2.30;1.53;;;11.20;99.90;;;;;;5100877;28;20498;-65
2022/04/07 01:47:34;;;;;;;2.40;1.67;;;11.20;99.90;;;;;;5101032;28;20177;-65
2022/04/07 01:50:08;;;;;;;2.97;1.83;;;11.10;99.90;;;;;;5102842;28;20171;-65
2022/04/07 01:52:38;;;;;;;2.47;1.50;;;11.10;99.90;;;;;;5101877;28;20166;-64
2022/04/07 01:55:05;;;;;;;2.07;1.73;;;11.00;99.90;;;;;;5101465;28;20242;-67
2022/04/07 01:57:34;;;;;;;2.83;1.40;;;11.00;99.90;;;;;;5102752;28;20169;-66
2022/04/07 02:00:01;;;;;;;2.23;1.60;;;11.00;99.90;;;;;;5108368;28;20194;-65
2022/04/07 02:02:27;;;;;;;2.27;1.40;;;10.90;99.90;;;;;;5107983;28;20178;-65
2022/04/07 02:04:58;;;;;;;2.63;1.43;;;10.90;99.90;;;;;;5108654;28;20158;-66
2022/04/07 02:07:31;;;;;;;2.37;1.40;;;10.90;99.90;;;;;;5109651;28;20163;-64
2022/04/07 02:09:57;;;;;;;2.47;1.40;;;10.90;99.90;;;;;;5105678;28;20166;-66
2022/04/07 02:12:23;;;;;;;1.90;1.27;;;10.90;99.90;;;;;;5109904;28;20198;-65
2022/04/07 02:14:49;;;;;;;1.40;1.23;;;10.90;99.90;;;;;;5103276;28;20501;-65
2022/04/07 02:17:22;;;;;;;3.63;1.63;;;10.80;99.90;;;;;;5100329;28;20167;-64
2022/04/07 02:19:53;;;;;;;1.77;1.50;;;10.90;99.90;;;;;;5098341;28;20202;-66
2022/04/07 02:22:19;;;;;;;1.27;1.10;;;10.90;99.90;;;;;;5096633;28;20214;-66
2022/04/07 02:24:46;;;;;;;1.57;1.30;;;10.90;99.90;;;;;;5096707;28;20170;-65
2022/04/07 02:27:11;;;;;;;2.10;1.60;;;10.80;99.90;;;;;;5096363;28;20595;-65
2022/04/07 02:29:37;;;;;;;3.83;1.50;;;10.90;99.90;;;;;;5096065;28;20174;-64
2022/04/07 02:32:06;;;;;;;1.80;1.37;;;11.00;99.90;;;;;;5096046;28;20167;-64
2022/04/07 02:34:32;;;;;;;3.50;1.60;;;11.00;99.90;;;;;;5096174;28;20159;-66
2022/04/07 02:36:58;;;;;;;1.40;1.30;;;11.00;99.90;;;;;;5096775;28;20185;-65
2022/04/07 02:39:23;;;;;;;2.17;1.40;;;11.10;99.90;;;;;;5095937;28;20202;-65
2022/04/07 02:41:49;;;;;;;1.40;1.30;;;11.00;99.90;;;;;;5096737;28;20178;-65
2022/04/07 02:44:17;;;;;;;3.27;1.60;;;11.00;99.90;;;;;;5096451;28;20591;-65
2022/04/07 02:46:43;;;;;;;2.00;1.43;;;11.10;99.90;;;;;;5095806;28;20162;-66
2022/04/07 02:49:09;;;;;;;5.37;1.73;;;11.10;99.90;;;;;;5096400;28;20167;-65
2022/04/07 02:51:34;;;;;;;2.17;1.40;;;11.10;99.90;;;;;;5077847;28;20212;-65
2022/04/07 02:54:00;;;;;;;1.90;1.37;;;11.10;99.90;;;;;;5096160;28;20165;-65
2022/04/07 02:56:27;;;;;;;3.23;1.63;;;11.10;99.90;;;;;;5098586;28;20226;-66
2022/04/07 02:58:53;;;;;;;2.07;1.50;;;11.10;99.90;;;;;;5098376;28;20261;-65
2022/04/07 03:01:18;;;;;;;1.87;1.30;;;11.10;99.90;;;;;;5101425;28;20159;-65
2022/04/07 03:03:44;;;;;;;2.37;1.70;;;11.00;99.90;;;;;;5100451;28;20182;-66
2022/04/07 03:06:10;;;;;;;3.00;1.27;;;11.00;99.90;;;;;;5096257;28;20163;-66
2022/04/07 03:08:36;;;;;;;2.17;1.30;;;11.00;99.90;;;;;;5095043;28;20163;-65
2022/04/07 03:11:02;;;;;;;2.83;1.60;;;11.00;99.90;;;;;;5095398;28;20170;-67
2022/04/07 03:13:27;;;;;;;4.17;1.37;;;10.90;99.90;;;;;;5095443;28;20235;-65
2022/04/07 03:15:53;;;;;;;2.70;1.17;;;11.00;99.90;;;;;;5078122;28;20220;-65
2022/04/07 03:18:19;;;;;;;1.77;1.20;;;10.90;99.90;;;;;;5076964;28;20186;-65
2022/04/07 03:20:45;;;;;;;1.40;1.20;;;10.90;99.90;;;;;;5095166;28;20194;-64
2022/04/07 03:23:11;;;;;;;2.93;1.63;;;10.80;99.90;;;;;;5077347;28;20186;-65
2022/04/07 03:25:37;;;;;;;1.37;1.20;;;10.90;99.90;;;;;;5095883;28;20153;-64
2022/04/07 03:28:06;;;;;;;2.23;1.30;;;10.90;99.90;;;;;;5095179;28;20204;-65
2022/04/07 03:30:33;;;;;;;3.27;1.37;;;10.80;99.90;;;;;;5095359;28;20155;-64
2022/04/07 03:32:58;;;;;;;1.77;1.27;;;10.90;99.90;;;;;;5094779;28;20156;-65
2022/04/07 03:35:25;;;;;;;1.43;1.30;;;10.80;99.90;;;;;;5095621;28;20159;-69
2022/04/07 03:37:51;;;;;;;2.00;1.50;;;10.90;99.90;;;;;;5077472;28;20182;-65
2022/04/07 03:40:17;;;;;;;1.87;1.47;;;10.90;99.90;;;;;;5094818;28;20200;-65
2022/04/07 03:42:43;;;;;;;1.60;1.30;;;10.90;99.90;;;;;;5094839;28;20167;-67
2022/04/07 03:45:08;;;;;;;1.67;1.40;;;10.80;99.90;;;;;;5094749;28;20586;-65
2022/04/07 03:47:34;;;;;;;1.50;1.40;;;10.90;99.90;;;;;;5094696;28;20170;-64
2022/04/07 03:50:00;;;;;;;1.40;1.30;;;10.80;99.90;;;;;;5094441;28;20171;-65
2022/04/07 03:52:26;;;;;;;1.57;1.47;;;10.80;99.90;;;;;;5094759;28;20174;-64
2022/04/07 03:54:52;;;;;;;2.20;1.50;;;10.80;99.90;;;;;;5094244;28;20571;-65
2022/04/07 03:57:18;;;;;;;3.53;1.37;;;10.80;99.90;;;;;;5094385;28;20163;-65
2022/04/07 03:59:44;;;;;;;3.60;1.40;;;10.80;99.90;;;;;;5094099;28;20199;-65
2022/04/07 04:02:10;;;;;;;1.53;1.40;;;10.80;99.90;;;;;;5076422;28;20272;-65
2022/04/07 04:04:36;;;;;;;3.10;1.80;;;10.80;99.90;;;;;;5094449;28;20163;-65
2022/04/07 04:07:03;;;;;;;3.50;1.70;;;10.80;99.90;;;;;;5094655;28;20652;-65
2022/04/07 04:09:28;;;;;;;2.70;1.30;;;10.70;99.90;;;;;;5094928;28;20535;-64
2022/04/07 04:11:54;;;;;;;1.87;1.60;;;10.70;99.90;;;;;;5076983;28;20239;-65
2022/04/07 04:14:19;;;;;;;2.20;1.50;;;10.70;99.90;;;;;;5095009;28;20203;-64
2022/04/07 04:16:45;;;;;;;2.03;1.53;;;10.70;99.90;;;;;;5098296;28;20159;-66
2022/04/07 04:19:11;;;;;;;2.13;1.50;;;10.70;99.90;;;;;;5098288;28;20191;-67
2022/04/07 04:21:37;;;;;;;2.37;1.67;;;10.70;99.90;;;;;;5097099;28;20233;-66
2022/04/07 04:24:03;;;;;;;2.50;1.63;;;10.70;99.90;;;;;;5093915;28;20167;-65
2022/04/07 04:26:29;;;;;;;3.30;1.80;;;10.70;99.90;;;;;;5093639;28;20175;-65
2022/04/07 04:28:55;;;;;;;2.07;1.40;;;10.80;99.90;;;;;;5094229;28;20482;-67
2022/04/07 04:31:24;;;;;;;1.83;1.37;;;10.80;99.90;;;;;;5076333;28;20590;-64
2022/04/07 04:33:56;;;;;;;2.30;1.57;;;10.90;99.90;;;;;;5094154;28;20166;-65
2022/04/07 04:36:22;;;;;;;1.40;1.30;;;10.90;99.90;;;;;;5093543;28;20183;-66
2022/04/07 04:38:48;;;;;;;1.83;1.43;;;10.90;99.90;;;;;;5093616;28;20185;-64
2022/04/07 04:41:15;;;;;;;1.60;1.50;;;10.80;99.90;;;;;;5093912;28;20473;-64
2022/04/07 04:43:41;;;;;;;2.13;1.50;;;10.90;99.90;;;;;;5092703;28;20163;-64
2022/04/07 04:46:07;;;;;;;2.20;1.57;;;11.00;99.90;;;;;;5093650;28;20229;-66
2022/04/07 04:48:33;;;;;;;1.83;1.40;;;11.00;99.90;;;;;;5093946;28;20194;-66
2022/04/07 04:50:59;;;;;;;1.97;1.77;;;11.00;99.90;;;;;;5092917;28;20177;-65
2022/04/07 04:53:24;;;;;;;2.37;1.70;;;11.00;99.90;;;;;;5075071;28;20532;-65
2022/04/07 04:55:50;;;;;;;4.00;1.67;;;11.00;99.90;;;;;;5093435;28;20218;-65
2022/04/07 04:58:16;;;;;;;1.63;1.40;;;11.00;99.90;;;;;;5093799;28;20167;-66
2022/04/07 05:00:43;;;;;;;2.27;1.30;;;11.00;99.90;;;;;;5098873;28;20194;-66
2022/04/07 05:03:09;;;;;;;3.93;1.70;;;11.00;99.90;;;;;;5095023;28;20248;-65
2022/04/07 05:05:34;;;;;;;1.37;1.27;;;11.10;99.90;;;;;;5093305;28;20170;-65
2022/04/07 05:08:00;;;;;;;2.33;1.30;;;11.00;99.90;;;;;;5093133;28;20158;-66
2022/04/07 05:10:26;;;;;;;1.97;1.33;;;11.10;99.90;;;;;;5099690;28;20200;-67
2022/04/07 05:12:52;;;;;;;1.20;1.10;;;11.10;99.90;;;;;;5101113;28;20507;-65
2022/04/07 05:15:18;;;;;;;1.20;1.10;;;11.10;99.90;;;;;;5093353;28;20249;-65
2022/04/07 05:18:02;;;;;;;1.33;1.23;;;11.20;99.90;;;;;;5093440;28;20654;-65
2022/04/07 05:20:28;;;;;;;1.10;1.10;;;11.20;99.90;;;;;;5093042;28;20201;-65
2022/04/07 05:22:53;;;;;;;3.00;1.30;;;11.30;99.90;;;;;;5088203;28;20614;-65
2022/04/07 05:25:19;;;;;;;1.30;1.20;;;11.40;99.90;;;;;;5093510;28;20220;-65
2022/04/07 05:27:45;;;;;;;5.57;1.67;;;11.40;99.90;;;;;;5092473;28;20163;-65
2022/04/07 05:30:13;;;;;;;1.63;1.40;;;11.50;99.90;;;;;;5093027;28;20186;-66
2022/04/07 05:32:39;;;;;;;1.27;1.17;;;11.50;99.90;;;;;;5093516;28;20159;-65
2022/04/07 05:35:05;;;;;;;1.43;1.00;;;11.60;99.90;;;;;;5088715;28;20183;-65
2022/04/07 05:37:31;;;;;;;2.60;1.27;;;11.60;99.90;;;;;;5108642;28;20214;-64
2022/04/07 05:39:56;;;;;;;1.20;1.10;;;11.60;99.90;;;;;;5092995;28;20232;-64
2022/04/07 05:42:22;;;;;;;1.50;1.30;;;11.70;99.90;;;;;;5093002;28;20207;-65
2022/04/07 05:44:47;;;;;;;2.10;1.40;;;11.70;99.90;;;;;;5092840;28;20591;-64
2022/04/07 05:47:13;;;;;;;8.13;1.93;;;11.80;99.90;;;;;;5093213;28;20519;-65
2022/04/07 05:49:39;;;;;;;1.90;1.50;;;11.90;99.90;;;;;;5075310;28;20284;-65
2022/04/07 05:52:05;;;;;;;2.07;1.77;;;11.90;99.90;;;;;;5093181;28;20508;-65
2022/04/07 05:54:31;;;;;;;4.37;2.13;;;11.90;99.90;;;;;;5094648;28;20186;-65
2022/04/07 05:56:57;;;;;;;1.33;1.17;;;11.90;99.90;;;;;;5097311;28;20315;-64
2022/04/07 05:59:23;;;;;;;2.30;1.40;;;12.00;99.90;;;;;;5096655;28;20682;-64
2022/04/07 06:01:49;;;;;;;1.93;1.43;;;11.90;99.90;;;;;;5078270;28;20190;-65
2022/04/07 06:04:16;;;;;;;1.73;1.60;;;12.00;99.90;;;;;;5096297;28;20252;-65
2022/04/07 06:06:41;;;;;;;2.33;1.37;;;12.10;99.90;;;;;;5096779;28;20195;-66
2022/04/07 06:09:07;;;;;;;1.83;1.20;;;12.10;99.90;;;;;;5096242;28;20195;-65
2022/04/07 06:11:33;;;;;;;3.20;1.43;;;12.10;99.90;;;;;;5096787;28;20277;-64
2022/04/07 06:13:58;;;;;;;1.20;1.10;;;12.10;99.90;;;;;;5095981;28;20573;-65
2022/04/07 06:16:24;;;;;;;0.80;0.80;;;12.10;99.90;;;;;;5096278;28;20171;-65
2022/04/07 06:18:51;;;;;;;2.37;1.10;;;12.20;99.90;;;;;;5095857;28;20170;-64
2022/04/07 06:21:17;;;;;;;0.90;0.80;;;12.20;99.90;;;;;;5096375;28;20181;-64
2022/04/07 06:23:42;;;;;;;2.13;1.53;;;12.30;99.90;;;;;;5096785;28;20163;-64
2022/04/07 06:26:08;;;;;;;2.07;1.60;;;12.40;99.90;;;;;;5082843;28;20214;-64
2022/04/07 06:28:34;;;;;;;1.87;1.10;;;12.40;99.90;;;;;;5096460;28;20155;-64
2022/04/07 06:31:00;;;;;;;1.20;1.10;;;12.50;99.90;;;;;;5095786;28;20167;-64
2022/04/07 06:33:25;;;;;;;1.93;1.10;;;12.50;99.90;;;;;;5095743;28;20671;-64
2022/04/07 06:35:51;;;;;;;0.80;0.80;;;12.60;99.90;;;;;;5096106;28;20167;-63
2022/04/07 06:38:18;;;;;;;1.73;1.03;;;12.70;99.90;;;;;;5096015;28;20177;-64
2022/04/07 06:40:44;;;;;;;1.73;1.23;;;12.70;99.90;;;;;;5095836;28;20199;-64
2022/04/07 06:43:10;;;;;;;2.60;1.10;;;12.70;99.90;;;;;;5095634;28;20201;-64
2022/04/07 06:45:36;;;;;;;0.90;0.90;;;12.80;99.90;;;;;;5095711;28;20160;-64
2022/04/07 06:48:02;;;;;;;4.83;1.00;;;12.80;99.90;;;;;;5095745;28;20235;-64
2022/04/07 06:50:28;;;;;;;3.47;1.33;;;12.80;99.90;;;;;;5095667;28;20591;-68
2022/04/07 06:52:55;;;;;;;2.23;1.30;;;12.80;99.90;;;;;;5096012;28;20602;-64
2022/04/07 06:55:21;;;;;;;1.23;1.03;;;12.80;99.90;;;;;;5095687;28;20616;-65
2022/04/07 06:57:56;;;;;;;1.53;1.03;;;12.90;99.90;;;;;;5095332;28;20246;-64
2022/04/07 07:00:26;;;;;;;1.47;1.10;;;13.00;99.90;;;;;;5110844;28;20242;-65
2022/04/07 07:02:53;;;;;;;1.07;0.90;;;12.90;99.90;;;;;;5077192;28;20257;-65
2022/04/07 07:05:20;;;;;;;1.00;0.90;;;12.90;99.90;;;;;;5094945;28;20271;-64
2022/04/07 07:07:46;;;;;;;0.90;0.90;;;12.90;99.90;;;;;;5095554;28;20163;-64
2022/04/07 07:10:12;;;;;;;2.37;1.10;;;12.90;99.90;;;;;;5095254;28;20170;-66
2022/04/07 07:12:38;;;;;;;0.80;0.70;;;12.90;99.90;;;;;;5095357;28;20613;-65
2022/04/07 07:15:04;;;;;;;1.03;0.70;;;12.90;99.90;;;;;;5095090;28;20194;-64
2022/04/07 07:17:33;;;;;;;1.20;1.00;;;13.00;99.90;;;;;;5077247;28;20186;-66
2022/04/07 07:20:12;;;;;;;0.83;0.80;;;13.10;99.90;;;;;;5095051;28;20634;-65
2022/04/07 07:22:41;;;;;;;1.30;1.00;;;13.00;99.90;;;;;;5095443;28;20174;-64
2022/04/07 07:25:08;;;;;;;0.80;0.80;;;13.10;99.90;;;;;;5096068;28;20154;-65
2022/04/07 07:27:38;;;;;;;1.20;1.10;;;12.90;99.90;;;;;;5094836;28;20572;-64
2022/04/07 07:30:08;;;;;;;1.10;0.90;;;13.00;99.90;;;;;;5094873;28;20156;-64
2022/04/07 07:32:34;;;;;;;2.23;1.40;;;13.00;99.90;;;;;;5094928;28;20500;-64
2022/04/07 07:34:59;;;;;;;1.70;1.50;;;13.10;99.90;;;;;;5094632;28;20202;-65
2022/04/07 07:37:25;;;;;;;0.80;0.80;;;13.20;99.90;;;;;;5095414;28;20599;-64
2022/04/07 07:39:50;;;;;;;2.73;0.90;;;13.40;99.90;;;;;;5094818;28;20602;-65
2022/04/07 07:42:16;;;;;;;0.77;0.70;;;13.50;99.90;;;;;;5094986;28;20591;-64
2022/04/07 07:44:42;;;;;;;1.20;0.90;;;13.80;99.90;;;;;;5094604;28;20337;-64
2022/04/07 07:47:07;;;;;;;1.53;1.00;;;13.70;99.90;;;;;;5094780;28;20587;-65
2022/04/07 07:49:33;;;;;;;1.83;1.00;;;13.70;99.90;;;;;;5095414;28;20216;-65
2022/04/07 07:51:58;;;;;;;0.90;0.90;;;13.70;99.90;;;;;;5098749;28;20169;-64
2022/04/07 07:54:24;;;;;;;1.40;0.90;;;13.90;99.90;;;;;;5094903;28;20178;-63
2022/04/07 07:56:50;;;;;;;1.60;1.20;;;14.00;99.90;;;;;;5093976;28;20662;-64
2022/04/07 07:59:20;;;;;;;2.87;1.57;;;14.30;99.90;;;;;;5094340;28;20247;-63
2022/04/07 08:01:48;;;;;;;1.53;0.80;;;14.30;99.90;;;;;;5094547;28;20155;-64
2022/04/07 08:04:15;;;;;;;0.70;0.70;;;14.50;99.90;;;;;;5094548;28;20174;-65
2022/04/07 08:06:41;;;;;;;1.50;0.90;;;14.50;99.90;;;;;;5093968;28;20534;-64
2022/04/07 08:09:08;;;;;;;0.47;0.43;;;14.50;99.90;;;;;;5094814;28;20174;-65
2022/04/07 08:11:34;;;;;;;1.03;0.70;;;14.50;99.90;;;;;;5094104;28;20158;-65
2022/04/07 08:13:59;;;;;;;1.10;0.63;;;14.60;99.90;;;;;;5094106;28;20167;-64
2022/04/07 08:16:25;;;;;;;0.60;0.60;;;14.70;99.90;;;;;;5094255;28;20159;-65
2022/04/07 08:18:50;;;;;;;0.70;0.70;;;14.80;99.90;;;;;;5094825;28;20267;-64
2022/04/07 08:21:16;;;;;;;0.90;0.70;;;15.00;99.90;;;;;;5094025;28;20234;-65
2022/04/07 08:23:41;;;;;;;0.73;0.70;;;14.90;99.90;;;;;;5093861;28;20167;-66
2022/04/07 08:26:07;;;;;;;0.60;0.60;;;14.90;99.90;;;;;;5094331;28;20163;-65
2022/04/07 08:28:33;;;;;;;0.90;0.90;;;15.10;99.90;;;;;;5094357;28;20614;-65
2022/04/07 08:30:58;;;;;;;2.40;1.00;;;15.00;99.90;;;;;;5094175;28;20197;-64
2022/04/07 08:33:24;;;;;;;0.70;0.70;;;14.90;99.90;;;;;;5094029;28;20523;-64
2022/04/07 08:35:51;;;;;;;0.40;0.40;;;14.70;99.90;;;;;;5094169;28;20231;-64
2022/04/07 08:38:16;;;;;;;0.43;0.43;;;14.70;99.90;;;;;;5094257;28;20208;-65
2022/04/07 08:40:45;;;;;;;1.03;0.60;;;15.00;99.90;;;;;;5093956;28;20199;-64
2022/04/07 08:43:11;;;;;;;0.43;0.43;;;15.60;99.90;;;;;;5095185;28;20609;-66
2022/04/07 08:45:37;;;;;;;0.67;0.67;;;15.60;98.00;;;;;;5094052;28;20151;-64
2022/04/07 08:48:05;;;;;;;2.23;0.70;;;15.40;98.40;;;;;;5096412;28;20174;-64
2022/04/07 08:50:33;;;;;;;0.37;0.37;;;15.20;99.10;;;;;;5097871;28;20167;-64
2022/04/07 08:52:59;;;;;;;12.50;0.90;;;14.90;99.70;;;;;;5097999;28;20162;-64
2022/04/07 08:55:24;;;;;;;3.07;2.20;;;14.90;99.70;;;;;;5094498;28;20573;-65
2022/04/07 08:57:50;;;;;;;6.20;3.70;;;14.90;98.80;;;;;;5093881;28;20693;-64
2022/04/07 09:00:16;;;;;;;1.97;1.37;;;15.20;98.90;;;;;;5093489;28;20669;-64
2022/04/07 09:02:43;;;;;;;6.10;3.20;;;15.50;97.70;;;;;;5093552;28;20190;-64
2022/04/07 09:05:10;;;;;;;4.13;2.30;;;15.70;96.70;;;;;;5093518;28;20228;-63
2022/04/07 09:07:36;;;;;;;1.57;1.33;;;15.60;96.10;;;;;;5109950;28;20178;-65
2022/04/07 09:10:04;;;;;;;4.27;1.80;;;15.50;95.30;;;;;;5093533;28;20242;-64
2022/04/07 09:12:30;;;;;;;1.73;1.33;;;15.80;95.10;;;;;;5075892;28;20182;-63
2022/04/07 09:14:59;;;;;;;1.50;1.40;;;15.80;94.50;;;;;;5076627;28;20181;-66
2022/04/07 09:17:26;;;;;;;1.80;1.60;;;15.80;94.70;;;;;;5092336;28;20171;-64
2022/04/07 09:19:53;;;;;;;1.23;1.00;;;15.80;94.70;;;;;;5093268;28;20653;-64
2022/04/07 09:22:29;;;;;;;1.30;1.10;;;15.90;94.20;;;;;;5093587;28;20262;-65
2022/04/07 09:24:54;;;;;;;0.50;0.50;;;16.10;93.80;;;;;;5093618;28;20166;-65
2022/04/07 09:27:20;;;;;;;0.63;0.63;;;16.40;93.60;;;;;;5093603;28;20167;-65
2022/04/07 09:29:47;;;;;;;0.70;0.70;;;16.40;93.10;;;;;;5094812;28;20167;-64
2022/04/07 09:32:21;;;;;;;1.23;1.13;;;16.80;91.80;;;;;;5097705;28;20181;-66
2022/04/07 09:34:52;;;;;;;0.73;0.73;;;16.80;91.20;;;;;;5097773;28;20162;-64
2022/04/07 09:37:23;;;;;;;1.27;1.17;;;16.80;90.50;;;;;;5097660;28;20279;-63
2022/04/07 09:40:01;;;;;;;4.65;3.58;;;17.10;90.00;;;;;;5097041;28;20232;-65
2022/04/07 09:42:27;;;;;;;1.00;0.90;;;17.40;89.10;;;;;;5097327;28;20246;-65
2022/04/07 09:44:59;;;;;;;1.40;0.85;;;17.20;88.40;;;;;;5097687;28;20202;-64
2022/04/07 09:47:34;;;;;;;1.90;1.00;;;16.90;86.80;;;;;;5097910;28;20190;-66
2022/04/07 09:50:00;;;;;;;0.90;0.90;;;16.70;88.30;;;;;;5096692;28;20166;-65
2022/04/07 09:52:26;;;;;;;0.70;0.70;;;16.70;88.40;;;;;;5078685;28;20232;-64
2022/04/07 09:54:52;;;;;;;0.80;0.80;;;16.60;88.00;;;;;;5097226;28;20167;-65
2022/04/07 09:57:20;;;;;;;0.50;0.50;;;17.00;87.00;;;;;;5097242;28;20169;-65
2022/04/07 09:59:46;;;;;;;0.75;0.70;;;16.80;85.70;;;;;;5097136;28;20198;-65
2022/04/07 10:02:13;;;;;;;3.03;0.70;;;16.60;86.20;;;;;;5096858;28;20210;-65
2022/04/07 10:04:39;;;;;;;2.65;0.90;;;16.40;86.40;;;;;;5097007;28;20159;-64
2022/04/07 10:07:09;;;;;;;0.60;0.60;;;16.50;86.80;;;;;;5096993;28;20159;-64
2022/04/07 10:09:37;;;;;;;2.20;0.80;;;16.40;86.40;;;;;;5097095;28;20175;-65
2022/04/07 10:12:03;;;;;;;2.90;0.50;;;16.40;85.00;;;;;;5096805;28;20539;-65
2022/04/07 10:14:30;;;;;;;1.63;0.70;;;16.60;84.40;;;;;;5097132;28;20498;-65
2022/04/07 10:16:56;;;;;;;0.73;0.52;;;16.60;83.80;;;;;;5112150;28;20179;-66
2022/04/07 10:19:32;;;;;;;4.07;0.63;;;16.60;83.50;;;;;;5096624;28;20278;-66
2022/04/07 10:22:07;;;;;;;0.73;0.65;;;16.50;83.30;;;;;;5096665;28;20181;-66
2022/04/07 10:24:36;;;;;;;1.13;0.93;;;16.40;84.60;;;;;;5097028;28;20162;-64
2022/04/07 10:27:05;;;;;;;1.15;0.90;;;16.40;84.10;;;;;;5097096;28;20166;-65
2022/04/07 10:29:31;;;;;;;0.55;0.55;;;16.30;84.30;;;;;;5079442;28;20508;-65
2022/04/07 10:32:11;;;;;;;0.77;0.77;;;16.30;84.30;;;;;;5096863;28;20228;-68
2022/04/07 10:34:42;;;;;;;0.68;0.68;;;16.30;83.80;;;;;;5097106;28;20155;-66
2022/04/07 10:37:09;;;;;;;2.03;0.60;;;16.40;83.20;;;;;;5096713;28;20265;-65
2022/04/07 10:39:39;;;;;;;0.60;0.60;;;16.70;82.80;;;;;;5097109;28;20199;-65
2022/04/07 10:42:05;;;;;;;0.82;0.80;;;16.70;82.10;;;;;;5097763;28;20163;-63
2022/04/07 10:44:33;;;;;;;0.77;0.77;;;16.50;83.00;;;;;;5112272;28;20170;-65
2022/04/07 10:47:04;;;;;;;1.27;1.00;;;16.30;83.30;;;;;;5096079;28;20155;-64
2022/04/07 10:49:32;;;;;;;0.70;0.70;;;16.30;84.10;;;;;;5096029;28;20158;-65
2022/04/07 10:51:59;;;;;;;0.60;0.60;;;16.20;83.70;;;;;;5097673;28;20163;-64
2022/04/07 10:54:28;;;;;;;0.70;0.70;;;16.20;84.10;;;;;;5097009;28;20565;-65
2022/04/07 10:57:07;;;;;;;0.77;0.70;;;16.30;85.20;;;;;;5095917;28;20231;-65
2022/04/07 10:59:34;;;;;;;0.70;0.70;;;16.30;84.30;;;;;;5095959;28;20248;-64
2022/04/07 11:02:04;;;;;;;1.07;0.70;;;16.20;84.20;;;;;;5096529;28;20457;-65
2022/04/07 11:04:37;;;;;;;0.50;0.50;;;16.20;84.60;;;;;;5096275;28;20174;-65
2022/04/07 11:07:13;;;;;;;0.60;0.60;;;16.10;84.70;;;;;;5095551;28;20155;-65
2022/04/07 11:09:57;;;;;;;0.60;0.60;;;16.00;84.90;;;;;;5096391;28;20166;-66
2022/04/07 11:12:24;;;;;;;0.70;0.70;;;16.10;85.50;;;;;;5095645;28;20190;-66
2022/04/07 11:14:53;;;;;;;1.33;0.93;;;16.10;86.10;;;;;;5095768;28;20257;-66
2022/04/07 11:17:46;;;;;;;2.22;1.20;;;16.20;86.00;;;;;;5095849;28;20171;-65
2022/04/07 11:20:24;;;;;;;0.57;0.57;;;16.30;86.00;;;;;;5095206;28;20546;-66
2022/04/07 11:23:02;;;;;;;0.77;0.50;;;16.30;85.40;;;;;;5095522;28;20174;-65
2022/04/07 11:25:35;;;;;;;1.27;1.00;;;16.50;85.40;;;;;;5096760;28;20163;-66
2022/04/07 11:28:14;;;;;;;0.57;0.57;;;16.40;85.50;;;;;;5096657;28;20173;-65
2022/04/07 11:30:40;;;;;;;0.75;0.70;;;16.40;85.70;;;;;;5095998;28;20201;-65
2022/04/07 11:33:27;;;;;;;0.70;0.70;;;16.50;86.00;;;;;;5095008;28;20159;-66
2022/04/07 11:35:58;;;;;;;1.15;0.90;;;16.60;85.40;;;;;;5095366;28;20505;-65
2022/04/07 11:38:26;;;;;;;1.08;0.98;;;16.60;86.40;;;;;;5077274;28;20584;-65
2022/04/07 11:41:06;;;;;;;1.80;1.60;;;16.50;86.90;;;;;;5095367;28;20238;-66
2022/04/07 11:43:34;;;;;;;0.80;0.80;;;16.40;87.60;;;;;;5095597;28;20216;-65
2022/04/07 11:46:01;;;;;;;0.63;0.63;;;16.40;88.10;;;;;;5095000;28;20159;-68
2022/04/07 11:48:31;;;;;;;0.77;0.77;;;16.30;88.60;;;;;;5094835;28;20613;-65
2022/04/07 11:51:01;;;;;;;1.42;0.80;;;16.30;89.10;;;;;;5094910;28;20163;-67
2022/04/07 11:53:27;;;;;;;0.60;0.60;;;16.30;89.80;;;;;;5094423;28;20155;-66
2022/04/07 11:55:54;;;;;;;0.60;0.60;;;16.40;90.60;;;;;;5111006;28;20233;-65
2022/04/07 11:58:19;;;;;;;0.50;0.50;;;16.40;90.10;;;;;;5095014;28;20171;-65
2022/04/07 12:00:45;;;;;;;0.73;0.70;;;16.40;89.40;;;;;;5095136;28;20260;-66
2022/04/07 12:03:10;;;;;;;9.93;1.57;;;16.30;90.00;;;;;;5096115;28;20205;-77
2022/04/07 12:05:37;;;;;;;4.20;1.17;;;16.50;91.10;;;;;;5101559;28;20155;-73
2022/04/07 12:08:16;;;;;;;1.67;1.00;;;16.40;90.10;;;;;;5113926;28;20182;-78
2022/04/07 12:10:44;;;;;;;1.15;0.80;;;16.70;89.60;;;;;;5097420;28;20161;-79
2022/04/07 12:13:10;;;;;;;0.50;0.50;;;16.60;89.00;;;;;;5097274;28;20166;-64
2022/04/07 12:15:37;;;;;;;0.97;0.80;;;16.70;88.00;;;;;;5094767;28;20561;-66
2022/04/07 12:18:06;;;;;;;0.60;0.60;;;16.40;88.30;;;;;;5094625;28;20197;-64
2022/04/07 12:20:33;;;;;;;0.93;0.57;;;16.30;89.50;;;;;;5094695;28;20195;-64
2022/04/07 12:23:07;;;;;;;0.52;0.52;;;16.30;90.10;;;;;;5094042;28;20159;-65
2022/04/07 12:25:33;;;;;;;0.50;0.50;;;16.10;90.40;;;;;;5094480;28;20162;-64
2022/04/07 12:28:09;;;;;;;0.67;0.57;;;16.30;90.30;;;;;;5094137;28;20186;-64
2022/04/07 12:30:42;;;;;;;1.00;0.40;;;16.70;89.70;;;;;;5094068;28;20181;-65
2022/04/07 12:33:08;;;;;;;0.90;0.70;;;16.90;88.60;;;;;;5094230;28;20154;-64
2022/04/07 12:35:45;;;;;;;0.38;0.38;;;16.90;88.60;;;;;;5094389;28;20213;-64
2022/04/07 12:38:11;;;;;;;1.42;0.50;;;16.70;90.10;;;;;;5094422;28;20225;-64
2022/04/07 12:40:38;;;;;;;0.38;0.38;;;16.80;89.30;;;;;;5094377;28;20341;-67
2022/04/07 12:43:04;;;;;;;0.70;0.70;;;16.70;89.20;;;;;;5094286;28;20171;-65
2022/04/07 12:45:30;;;;;;;0.60;0.50;;;16.80;88.50;;;;;;5094270;28;20249;-64
2022/04/07 12:48:10;;;;;;;0.63;0.40;;;16.90;88.50;;;;;;5094209;28;20165;-64
2022/04/07 12:50:36;;;;;;;0.60;0.60;;;17.10;87.60;;;;;;5094171;28;20163;-66